Time;durP1;ratioP1;P1;durP2;ratioP2;P2;SDS_P1;SDS_P2;PMS_P1;PMS_P2;Temp;Humidity;BMP_temperature;BMP_pressure;BME280_temperature;BME280_humidity;BME280_pressure;Samples;Min_cycle;Max_cycle;Signal;HPM_P1;HPM_P2
2023/07/06 00:01:42;;;;;;;;;;;;;;;21.56;53.28;100347.09;5055834;28;1086;-37
2023/07/06 00:04:08;;;;;;;;;;;;;;;23.38;48.81;100349.91;5056442;28;1083;-38
2023/07/06 00:06:33;;;;;;;;;;;;;;;24.01;49.02;100350.19;5055876;28;1913;-38
2023/07/06 00:08:59;;;;;;;;;;;;;;;25.10;45.16;100349.75;5056237;28;1291;-37
2023/07/06 00:11:26;;;;;;;;;;;;;;;23.27;46.21;100346.56;5055688;28;1114;-38
2023/07/06 00:13:52;;;;;;;;;;;;;;;21.52;55.85;100340.41;5056530;28;1147;-39
2023/07/06 00:16:21;;;;;;;;;;;;;;;24.00;47.70;100343.16;5055582;28;1070;-36
2023/07/06 00:18:47;;;;;;;;;;;;;;;24.70;46.62;100343.41;5056242;28;1118;-37
2023/07/06 00:21:12;;;;;;;;;;;;;;;24.99;47.10;100349.13;5056144;28;1166;-32
2023/07/06 00:23:43;;;;;;;;;;;;;;;22.43;49.46;100341.94;5056036;28;1213;-39
2023/07/06 00:26:11;;;;;;;;;;;;;;;22.48;51.84;100347.66;5055840;28;1910;-38
2023/07/06 00:28:37;;;;;;;;;;;;;;;24.24;48.67;100349.47;5055997;28;1082;-39
2023/07/06 00:31:20;;;;;;;;;;;;;;;24.96;45.69;100351.38;5055862;28;1202;-38
2023/07/06 00:33:46;;;;;;;;;;;;;;;24.72;46.99;100343.25;5056045;28;1131;-37
2023/07/06 00:36:12;;;;;;;;;;;;;;;21.42;54.18;100332.44;5054082;28;997;-37
2023/07/06 00:38:37;;;;;;;;;;;;;;;23.30;49.18;100335.47;5055438;28;1153;-38
2023/07/06 00:41:03;;;;;;;;;;;;;;;23.97;49.42;100332.75;5041307;28;1151;-38
2023/07/06 00:43:45;;;;;;;;;;;;;;;24.91;44.70;100347.34;5048729;28;1578;-38
2023/07/06 00:46:10;;;;;;;;;;;;;;;25.07;45.17;100337.50;5069047;28;1964;-38
2023/07/06 00:48:36;;;;;;;;;;;;;;;24.63;48.10;100338.91;5086772;28;1198;-38
2023/07/06 00:51:09;;;;;;;;;;;;;;;22.21;49.81;100344.19;5080967;28;1056;-39
2023/07/06 00:53:37;;;;;;;;;;;;;;;23.12;49.50;100338.31;5075044;28;1066;-38
2023/07/06 00:56:03;;;;;;;;;;;;;;;24.20;49.02;100334.72;5056944;28;1137;-38
2023/07/06 00:58:33;;;;;;;;;;;;;;;25.03;44.47;100328.94;5088767;28;1147;-38
2023/07/06 01:00:59;;;;;;;;;;;;;;;24.31;44.63;100338.88;5059306;28;998;-39
2023/07/06 01:03:25;;;;;;;;;;;;;;;22.05;54.32;100340.44;5074623;28;1164;-39
2023/07/06 01:05:58;;;;;;;;;;;;;;;23.68;47.86;100334.13;5074834;28;1914;-38
2023/07/06 01:08:23;;;;;;;;;;;;;;;24.35;47.34;100342.91;5074225;28;1095;-39
2023/07/06 01:10:49;;;;;;;;;;;;;;;24.82;46.28;100343.00;5053534;28;1508;-37
2023/07/06 01:13:15;;;;;;;;;;;;;;;22.93;48.37;100342.97;5074829;28;1051;-36
2023/07/06 01:15:44;;;;;;;;;;;;;;;22.26;53.35;100347.25;5059186;28;1019;-38
2023/07/06 01:18:15;;;;;;;;;;;;;;;23.94;47.52;100347.34;5057462;28;1095;-38
2023/07/06 01:20:49;;;;;;;;;;;;;;;24.49;47.14;100348.56;5057851;28;1055;-40
2023/07/06 01:23:50;;;;;;;;;;;;;;;24.40;48.91;100345.06;5057771;28;1195;-39
2023/07/06 01:26:22;;;;;;;;;;;;;;;21.80;52.36;100348.31;5050264;28;1980;-38
2023/07/06 01:29:07;;;;;;;;;;;;;;;23.28;49.79;100340.16;5046177;28;1199;-38
2023/07/06 01:31:37;;;;;;;;;;;;;;;24.12;49.05;100342.78;5046611;28;1079;-38
2023/07/06 01:34:09;;;;;;;;;;;;;;;25.11;44.72;100341.50;5057472;28;2522;-38
2023/07/06 01:36:38;;;;;;;;;;;;;;;22.51;49.89;100341.97;5057125;28;1122;-38
2023/07/06 01:39:10;;;;;;;;;;;;;;;22.30;53.60;100345.09;5055764;28;1257;-38
2023/07/06 01:41:36;;;;;;;;;;;;;;;24.05;48.98;100348.84;5039021;28;1434;-38
2023/07/06 01:44:04;;;;;;;;;;;;;;;24.67;46.79;100349.13;5038948;28;1466;-38
2023/07/06 01:46:29;;;;;;;;;;;;;;;24.43;48.87;100359.00;5038265;28;1921;-39
2023/07/06 01:48:55;;;;;;;;;;;;;;;21.68;52.20;100360.25;5072574;28;1181;-38
2023/07/06 01:51:27;;;;;;;;;;;;;;;23.13;50.95;100366.81;5056225;28;1471;-38
2023/07/06 01:53:58;;;;;;;;;;;;;;;23.89;50.48;100363.13;5069414;28;1504;-38
2023/07/06 01:56:33;;;;;;;;;;;;;;;24.96;46.22;100362.13;5054160;28;1554;-39
2023/07/06 01:59:02;;;;;;;;;;;;;;;22.72;48.37;100359.53;5051229;28;1330;-36
2023/07/06 02:01:29;;;;;;;;;;;;;;;21.58;56.10;100349.63;5052779;28;1123;-39
2023/07/06 02:03:55;;;;;;;;;;;;;;;23.90;47.91;100351.41;5074101;28;1067;-38
2023/07/06 02:06:21;;;;;;;;;;;;;;;24.32;47.68;100352.13;5056760;28;1905;-38
2023/07/06 02:08:46;;;;;;;;;;;;;;;24.57;49.06;100349.34;5057826;28;1082;-37
2023/07/06 02:11:13;;;;;;;;;;;;;;;21.89;51.19;100352.72;5056763;28;1228;-38
2023/07/06 02:13:39;;;;;;;;;;;;;;;22.42;52.87;100353.69;5073175;28;883;-37
2023/07/06 02:16:05;;;;;;;;;;;;;;;23.92;49.76;100353.91;5057904;28;1070;-38
2023/07/06 02:18:31;;;;;;;;;;;;;;;24.67;46.42;100356.38;5058424;28;1116;-38
2023/07/06 02:20:57;;;;;;;;;;;;;;;24.42;48.53;100351.09;5057774;28;1016;-38
2023/07/06 02:23:23;;;;;;;;;;;;;;;21.16;53.96;100346.59;5057600;28;1117;-38
2023/07/06 02:25:49;;;;;;;;;;;;;;;23.01;50.74;100350.19;5073141;28;1913;-37
2023/07/06 02:28:15;;;;;;;;;;;;;;;23.85;50.57;100351.06;5058067;28;1071;-39
2023/07/06 02:30:41;;;;;;;;;;;;;;;24.85;45.79;100352.56;5057785;28;1115;-37
2023/07/06 02:33:07;;;;;;;;;;;;;;;23.27;46.46;100349.25;5058067;28;1056;-38
2023/07/06 02:35:33;;;;;;;;;;;;;;;21.09;57.89;100351.72;5073312;28;1219;-35
2023/07/06 02:37:58;;;;;;;;;;;;;;;23.54;49.19;100352.59;5064166;28;1810;-38
2023/07/06 02:40:25;;;;;;;;;;;;;;;24.14;48.17;100349.66;5083998;28;1730;-38
2023/07/06 02:42:50;;;;;;;;;;;;;;;24.91;45.80;100347.34;5057816;28;885;-32
2023/07/06 02:45:17;;;;;;;;;;;;;;;22.12;50.18;100349.50;5055918;28;1902;-37
2023/07/06 02:47:43;;;;;;;;;;;;;;;21.88;54.46;100358.25;5057411;28;1158;-37
2023/07/06 02:50:11;;;;;;;;;;;;;;;24.02;47.28;100359.09;5057307;28;899;-38
2023/07/06 02:52:37;;;;;;;;;;;;;;;24.55;46.70;100362.16;5072476;28;1153;-37
2023/07/06 02:55:03;;;;;;;;;;;;;;;24.31;48.62;100369.28;5057196;28;1070;-38
2023/07/06 02:57:28;;;;;;;;;;;;;;;21.49;51.77;100367.44;5055770;28;1151;-37
2023/07/06 02:59:56;;;;;;;;;;;;;;;23.17;52.87;100368.16;5056090;28;1327;-34
2023/07/06 03:02:22;;;;;;;;;;;;;;;23.84;51.44;100369.03;5055718;28;1151;-35
2023/07/06 03:04:47;;;;;;;;;;;;;;;24.57;47.79;100384.31;5057059;28;1898;-36
2023/07/06 03:07:13;;;;;;;;;;;;;;;24.56;48.27;100381.78;5056903;28;1134;-33
2023/07/06 03:09:38;;;;;;;;;;;;;;;23.92;51.52;100381.59;5072659;28;1294;-35
2023/07/06 03:12:05;;;;;;;;;;;;;;;24.20;50.48;100385.78;5056923;28;1008;-35
2023/07/06 03:14:32;;;;;;;;;;;;;;;24.33;50.53;100379.88;5056654;28;936;-33
2023/07/06 03:16:58;;;;;;;;;;;;;;;24.61;51.44;100378.59;5056763;28;1094;-35
2023/07/06 03:19:24;;;;;;;;;;;;;;;24.16;49.06;100379.91;5055768;28;1127;-34
2023/07/06 03:21:52;;;;;;;;;;;;;;;24.15;50.58;100375.53;5056526;28;1102;-34
2023/07/06 03:24:18;;;;;;;;;;;;;;;24.06;50.04;100379.22;5056840;28;1051;-31
2023/07/06 03:26:44;;;;;;;;;;;;;;;23.78;51.88;100388.53;5056835;28;1910;-32
2023/07/06 03:29:12;;;;;;;;;;;;;;;24.14;50.38;100387.28;5055026;28;1044;-34
2023/07/06 03:31:37;;;;;;;;;;;;;;;24.13;51.17;100390.13;5056879;28;1044;-34
2023/07/06 03:34:06;;;;;;;;;;;;;;;23.91;53.58;100392.53;5056200;28;1153;-32
2023/07/06 03:36:33;;;;;;;;;;;;;;;24.14;48.69;100386.44;5056257;28;1155;-34
2023/07/06 03:38:59;;;;;;;;;;;;;;;23.92;51.39;100384.28;5056692;28;1062;-33
2023/07/06 03:41:25;;;;;;;;;;;;;;;23.68;54.15;100390.53;5056695;28;1182;-35
2023/07/06 03:43:56;;;;;;;;;;;;;;;24.49;49.23;100387.03;5055998;28;1062;-31
2023/07/06 03:46:23;;;;;;;;;;;;;;;24.13;48.63;100385.59;5056558;28;1910;-29
2023/07/06 03:48:48;;;;;;;;;;;;;;;24.04;51.31;100381.28;5071497;28;1553;-37
2023/07/06 03:51:14;;;;;;;;;;;;;;;23.94;52.39;100381.47;5055372;28;1007;-35
2023/07/06 03:53:40;;;;;;;;;;;;;;;24.32;51.02;100387.09;5051953;28;1488;-33
2023/07/06 03:56:06;;;;;;;;;;;;;;;24.17;52.87;100380.75;5040651;28;1056;-27
2023/07/06 03:58:32;;;;;;;;;;;;;;;22.85;54.17;100373.31;5046613;28;1278;-41
2023/07/06 04:00:58;;;;;;;;;;;;;;;24.32;50.52;100375.50;5056176;28;1047;-40
2023/07/06 04:03:24;;;;;;;;;;;;;;;25.12;50.28;100380.03;5056310;28;1047;-38
2023/07/06 04:05:51;;;;;;;;;;;;;;;21.56;60.59;100373.03;5055717;28;1902;-37
2023/07/06 04:08:18;;;;;;;;;;;;;;;24.17;51.44;100378.88;5056304;28;1187;-37
2023/07/06 04:10:44;;;;;;;;;;;;;;;24.72;50.91;100382.75;5056484;28;1067;-39
2023/07/06 04:13:10;;;;;;;;;;;;;;;23.67;48.24;100381.63;5055080;28;1087;-37
2023/07/06 04:15:36;;;;;;;;;;;;;;;22.46;56.27;100384.50;5056179;28;1141;-39
2023/07/06 04:18:03;;;;;;;;;;;;;;;24.71;49.56;100384.59;5055581;28;1154;-39
2023/07/06 04:20:29;;;;;;;;;;;;;;;22.78;51.86;100385.69;5055925;28;1062;-40
2023/07/06 04:22:55;;;;;;;;;;;;;;;22.41;56.63;100387.69;5071539;28;1294;-38
2023/07/06 04:25:22;;;;;;;;;;;;;;;24.78;50.45;100395.47;5055421;28;1902;-36
2023/07/06 04:27:48;;;;;;;;;;;;;;;24.93;46.97;100391.06;5055736;28;1142;-38
2023/07/06 04:30:14;;;;;;;;;;;;;;;24.63;48.55;100390.84;5055942;28;1151;-37
2023/07/06 04:32:41;;;;;;;;;;;;;;;24.52;50.95;100397.47;5056045;28;1035;-37
2023/07/06 04:35:08;;;;;;;;;;;;;;;25.24;48.19;100402.81;5055559;28;1031;-39
2023/07/06 04:37:34;;;;;;;;;;;;;;;25.27;46.01;100398.94;5055907;28;1003;-39
2023/07/06 04:39:59;;;;;;;;;;;;;;;24.76;48.15;100398.34;5056029;28;1182;-38
2023/07/06 04:42:27;;;;;;;;;;;;;;;24.50;48.83;100399.47;5055889;28;1199;-40
2023/07/06 04:44:53;;;;;;;;;;;;;;;24.23;49.14;100400.72;5055333;28;1898;-39
2023/07/06 04:47:23;;;;;;;;;;;;;;;24.48;50.44;100406.88;5055578;28;1162;-34
2023/07/06 04:49:49;;;;;;;;;;;;;;;24.95;50.23;100404.34;5059647;28;1052;-37
2023/07/06 04:52:15;;;;;;;;;;;;;;;22.51;52.22;100401.81;5061564;28;1439;-39
2023/07/06 04:54:41;;;;;;;;;;;;;;;21.38;59.89;100409.53;5054359;28;1294;-38
2023/07/06 04:57:07;;;;;;;;;;;;;;;24.20;50.20;100410.81;5055414;28;1162;-34
2023/07/06 04:59:33;;;;;;;;;;;;;;;24.76;49.99;100416.31;5054976;28;1202;-37
2023/07/06 05:01:59;;;;;;;;;;;;;;;21.24;57.12;100408.19;5054517;28;1222;-37
2023/07/06 05:04:25;;;;;;;;;;;;;;;23.67;51.08;100413.03;5054788;28;1292;-37
2023/07/06 05:06:51;;;;;;;;;;;;;;;24.28;51.39;100409.97;5055524;28;1905;-36
2023/07/06 05:09:17;;;;;;;;;;;;;;;21.70;54.29;100415.31;5055523;28;1140;-35
2023/07/06 05:11:43;;;;;;;;;;;;;;;22.54;54.63;100413.22;5055753;28;1126;-30
2023/07/06 05:14:08;;;;;;;;;;;;;;;23.56;48.70;100404.28;5055204;28;1171;-37
2023/07/06 05:16:34;;;;;;;;;;;;;;;22.16;54.23;100406.28;5054829;28;1293;-38
2023/07/06 05:18:59;;;;;;;;;;;;;;;24.40;47.46;100398.84;5055289;28;1099;-36
2023/07/06 05:21:25;;;;;;;;;;;;;;;25.25;43.90;100403.66;5054348;28;1040;-38
2023/07/06 05:23:51;;;;;;;;;;;;;;;25.73;42.55;100398.09;5055623;28;1210;-38
2023/07/06 05:26:17;;;;;;;;;;;;;;;26.01;41.67;100404.72;5054539;28;1902;-38
2023/07/06 05:28:42;;;;;;;;;;;;;;;26.08;41.23;100402.13;5055416;28;1147;-39
2023/07/06 05:31:08;;;;;;;;;;;;;;;26.20;41.23;100405.22;5057723;28;1137;-37
2023/07/06 05:33:33;;;;;;;;;;;;;;;26.24;40.94;100404.66;5058251;28;1163;-39
2023/07/06 05:35:59;;;;;;;;;;;;;;;26.21;41.27;100413.13;5058817;28;1178;-38
2023/07/06 05:38:25;;;;;;;;;;;;;;;26.23;41.02;100408.38;5058497;28;1094;-37
2023/07/06 05:40:51;;;;;;;;;;;;;;;26.36;40.38;100415.84;5058673;28;1070;-36
2023/07/06 05:43:17;;;;;;;;;;;;;;;26.31;40.58;100415.53;5058797;28;1194;-38
2023/07/06 05:45:42;;;;;;;;;;;;;;;26.36;40.72;100413.16;5058676;28;1990;-38
2023/07/06 05:48:08;;;;;;;;;;;;;;;26.34;40.07;100417.06;5058687;28;1087;-35
2023/07/06 05:50:34;;;;;;;;;;;;;;;26.45;39.99;100411.19;5058299;28;1042;-36
2023/07/06 05:53:02;;;;;;;;;;;;;;;26.52;39.52;100411.28;5058755;28;1121;-35
2023/07/06 05:55:29;;;;;;;;;;;;;;;26.58;39.44;100407.00;5058380;28;1128;-34
2023/07/06 05:57:55;;;;;;;;;;;;;;;26.61;39.06;100410.16;5058447;28;1012;-39
2023/07/06 06:00:20;;;;;;;;;;;;;;;26.69;39.21;100414.63;5058549;28;1231;-38
2023/07/06 06:02:46;;;;;;;;;;;;;;;26.75;38.96;100418.41;5055031;28;1432;-37
2023/07/06 06:05:14;;;;;;;;;;;;;;;26.72;38.95;100408.84;5056713;28;1918;-36
2023/07/06 06:07:44;;;;;;;;;;;;;;;26.80;38.87;100401.66;5058055;28;1115;-38
2023/07/06 06:10:10;;;;;;;;;;;;;;;26.82;38.85;100405.84;5058484;28;1218;-37
2023/07/06 06:12:36;;;;;;;;;;;;;;;26.94;38.42;100402.66;5057950;28;1008;-38
2023/07/06 06:15:03;;;;;;;;;;;;;;;26.98;38.07;100399.38;5057594;28;929;-38
2023/07/06 06:17:28;;;;;;;;;;;;;;;26.94;38.20;100400.81;5057937;28;1166;-37
2023/07/06 06:19:54;;;;;;;;;;;;;;;26.91;37.70;100403.84;5057541;28;1131;-38
2023/07/06 06:22:19;;;;;;;;;;;;;;;27.15;37.27;100401.88;5058226;28;1146;-38
2023/07/06 06:24:45;;;;;;;;;;;;;;;27.10;37.29;100405.16;5058012;28;1914;-38
2023/07/06 06:27:11;;;;;;;;;;;;;;;27.17;37.43;100399.81;5057420;28;873;-37
2023/07/06 06:29:39;;;;;;;;;;;;;;;27.13;37.09;100390.44;5057733;28;1154;-38
2023/07/06 06:32:04;;;;;;;;;;;;;;;27.20;36.75;100388.63;5057943;28;1170;-38
2023/07/06 06:34:30;;;;;;;;;;;;;;;27.35;36.40;100396.69;5056342;28;2214;-35
2023/07/06 06:36:56;;;;;;;;;;;;;;;27.44;36.53;100391.16;5057205;28;1150;-37
2023/07/06 06:39:21;;;;;;;;;;;;;;;27.29;36.22;100389.34;5057258;28;1211;-37
2023/07/06 06:41:47;;;;;;;;;;;;;;;27.22;36.30;100391.16;5057246;28;1197;-38
2023/07/06 06:44:16;;;;;;;;;;;;;;;27.19;36.67;100386.97;5072839;28;1329;-41
2023/07/06 06:46:41;;;;;;;;;;;;;;;27.37;36.06;100388.38;5057475;28;1910;-40
2023/07/06 06:49:07;;;;;;;;;;;;;;;27.57;35.62;100385.00;5057638;28;1155;-39
2023/07/06 06:51:33;;;;;;;;;;;;;;;27.61;36.56;100386.31;5057334;28;856;-38
2023/07/06 06:53:58;;;;;;;;;;;;;;;27.65;36.36;100394.84;5057257;28;1043;-40
2023/07/06 06:56:24;;;;;;;;;;;;;;;27.72;36.55;100383.09;5057685;28;1202;-40
2023/07/06 06:58:51;;;;;;;;;;;;;;;27.72;37.37;100384.97;5072780;28;1039;-39
2023/07/06 07:01:17;;;;;;;;;;;;;;;27.69;37.57;100385.34;5057170;28;1063;-40
2023/07/06 07:03:43;;;;;;;;;;;;;;;27.89;37.10;100387.38;5056879;28;1124;-38
2023/07/06 07:06:11;;;;;;;;;;;;;;;27.80;37.46;100390.22;5057052;28;1945;-40
2023/07/06 07:08:49;;;;;;;;;;;;;;;27.83;38.60;100391.69;5056201;28;1230;-39
2023/07/06 07:11:19;;;;;;;;;;;;;;;27.89;37.97;100384.66;5056644;28;1191;-39
2023/07/06 07:13:44;;;;;;;;;;;;;;;27.80;38.17;100384.81;5056818;28;1230;-39
2023/07/06 07:16:11;;;;;;;;;;;;;;;27.85;37.86;100378.81;5056301;28;1298;-41
2023/07/06 07:18:38;;;;;;;;;;;;;;;28.03;37.24;100383.72;5056704;28;1383;-38
2023/07/06 07:21:04;;;;;;;;;;;;;;;28.09;37.65;100371.28;5056497;28;1199;-38
2023/07/06 07:23:33;;;;;;;;;;;;;;;28.16;38.00;100365.91;5056804;28;1012;-37
2023/07/06 07:25:59;;;;;;;;;;;;;;;28.20;37.14;100372.56;5056464;28;1914;-39
2023/07/06 07:28:24;;;;;;;;;;;;;;;27.97;38.07;100369.13;5056152;28;1384;-39
2023/07/06 07:30:59;;;;;;;;;;;;;;;27.97;37.51;100369.13;5056848;28;1263;-39
2023/07/06 07:33:25;;;;;;;;;;;;;;;27.93;37.24;100361.59;5056170;28;1265;-39
2023/07/06 07:35:51;;;;;;;;;;;;;;;27.93;37.12;100362.44;5056389;28;1306;-39
2023/07/06 07:38:17;;;;;;;;;;;;;;;28.01;37.92;100357.91;5056056;28;1199;-37
2023/07/06 07:40:56;;;;;;;;;;;;;;;27.89;38.20;100363.03;5056373;28;1175;-37
2023/07/06 07:43:27;;;;;;;;;;;;;;;27.89;38.25;100361.19;5056448;28;1278;-39
2023/07/06 07:45:56;;;;;;;;;;;;;;;27.92;37.69;100365.34;5056225;28;1971;-38
2023/07/06 07:48:23;;;;;;;;;;;;;;;27.99;37.91;100353.53;5056009;28;1171;-38
2023/07/06 07:50:50;;;;;;;;;;;;;;;28.02;37.45;100359.59;5055810;28;1254;-39
2023/07/06 07:53:16;;;;;;;;;;;;;;;27.94;37.60;100344.38;5055148;28;1274;-34
2023/07/06 07:55:41;;;;;;;;;;;;;;;27.98;37.78;100353.72;5055792;28;1250;-38
2023/07/06 07:58:08;;;;;;;;;;;;;;;27.98;37.65;100359.13;5055910;28;1301;-39
2023/07/06 08:00:34;;;;;;;;;;;;;;;27.95;37.55;100351.44;5055540;28;1309;-38
2023/07/06 08:03:03;;;;;;;;;;;;;;;28.01;37.64;100349.81;5055685;28;1258;-37
2023/07/06 08:05:29;;;;;;;;;;;;;;;28.04;37.54;100355.66;5055775;28;1902;-37
2023/07/06 08:07:55;;;;;;;;;;;;;;;28.01;37.70;100347.09;5056272;28;1278;-36
2023/07/06 08:10:21;;;;;;;;;;;;;;;28.15;37.77;100350.69;5056252;28;1133;-38
2023/07/06 08:12:48;;;;;;;;;;;;;;;28.22;37.44;100340.75;5056285;28;1087;-33
2023/07/06 08:15:14;;;;;;;;;;;;;;;28.44;37.51;100355.06;5056021;28;1198;-39
2023/07/06 08:17:41;;;;;;;;;;;;;;;28.51;37.65;100354.25;5055820;28;1139;-39
2023/07/06 08:20:11;;;;;;;;;;;;;;;28.60;36.23;100353.84;5056192;28;1155;-36
2023/07/06 08:22:37;;;;;;;;;;;;;;;28.61;35.75;100352.00;5056190;28;1066;-37
2023/07/06 08:25:03;;;;;;;;;;;;;;;28.42;36.75;100356.28;5055688;28;1898;-38
2023/07/06 08:27:29;;;;;;;;;;;;;;;28.50;36.47;100341.72;5055524;28;892;-38
2023/07/06 08:29:55;;;;;;;;;;;;;;;28.55;36.82;100348.22;5055647;28;1214;-33
2023/07/06 08:32:22;;;;;;;;;;;;;;;28.62;36.97;100347.41;5041038;28;1111;-34
2023/07/06 08:34:47;;;;;;;;;;;;;;;28.67;37.60;100348.47;5055958;28;1213;-35
2023/07/06 08:37:13;;;;;;;;;;;;;;;28.55;37.77;100347.38;5055215;28;1278;-33
2023/07/06 08:39:39;;;;;;;;;;;;;;;28.70;36.60;100339.09;5055306;28;1340;-34
2023/07/06 08:42:09;;;;;;;;;;;;;;;28.56;36.47;100340.94;5055308;28;1246;-31
2023/07/06 08:44:36;;;;;;;;;;;;;;;28.55;36.12;100341.97;5055305;28;1316;-36
2023/07/06 08:47:01;;;;;;;;;;;;;;;28.64;36.09;100348.88;5055692;28;1915;-35
2023/07/06 08:49:33;;;;;;;;;;;;;;;28.70;36.34;100342.66;5071309;28;1059;-33
2023/07/06 08:52:05;;;;;;;;;;;;;;;28.55;36.40;100339.25;5055671;28;1059;-34
2023/07/06 08:54:38;;;;;;;;;;;;;;;28.69;36.10;100341.00;5055800;28;1225;-30
2023/07/06 08:57:15;;;;;;;;;;;;;;;28.85;35.76;100341.63;5071177;28;1186;-34
2023/07/06 08:59:45;;;;;;;;;;;;;;;28.71;35.80;100336.19;5071174;28;1087;-32
2023/07/06 09:02:18;;;;;;;;;;;;;;;28.62;36.32;100333.88;5070706;28;1295;-33
2023/07/06 09:04:44;;;;;;;;;;;;;;;28.91;35.68;100346.22;5057571;28;1906;-35
2023/07/06 09:07:12;;;;;;;;;;;;;;;28.94;36.12;100343.13;5059527;28;1015;-33
2023/07/06 09:09:47;;;;;;;;;;;;;;;29.01;35.76;100347.75;5059258;28;1133;-30
2023/07/06 09:12:33;;;;;;;;;;;;;;;28.84;36.11;100348.91;5059933;28;1143;-28
2023/07/06 09:14:59;;;;;;;;;;;;;;;28.92;36.17;100350.63;5058928;28;1699;-31
2023/07/06 09:17:26;;;;;;;;;;;;;;;29.09;35.91;100347.56;5059309;28;1010;-31
2023/07/06 09:19:53;;;;;;;;;;;;;;;29.12;35.07;100344.44;5059418;28;1139;-34
2023/07/06 09:22:21;;;;;;;;;;;;;;;29.25;34.99;100353.59;5058721;28;1046;-36
2023/07/06 09:24:47;;;;;;;;;;;;;;;29.16;35.33;100342.97;5058978;28;1910;-32
2023/07/06 09:27:21;;;;;;;;;;;;;;;28.96;35.56;100345.63;5057522;28;1072;-31
2023/07/06 09:29:58;;;;;;;;;;;;;;;29.02;36.03;100341.28;5044936;28;1128;-30
2023/07/06 09:32:24;;;;;;;;;;;;;;;29.12;35.62;100340.88;5058751;28;1063;-34
2023/07/06 09:34:50;;;;;;;;;;;;;;;29.23;35.09;100345.66;5058842;28;1035;-34
2023/07/06 09:37:16;;;;;;;;;;;;;;;29.25;35.19;100340.88;5058564;28;1119;-32
2023/07/06 09:39:43;;;;;;;;;;;;;;;29.21;35.91;100343.16;5074482;28;1071;-33
2023/07/06 09:42:09;;;;;;;;;;;;;;;29.58;35.44;100331.91;5057405;28;1477;-30
2023/07/06 09:44:34;;;;;;;;;;;;;;;29.37;34.62;100324.00;5059055;28;1168;-32
2023/07/06 09:47:01;;;;;;;;;;;;;;;29.25;34.66;100334.63;5073700;28;1914;-31
2023/07/06 09:49:31;;;;;;;;;;;;;;;29.18;35.41;100330.06;5058796;28;1229;-28
2023/07/06 09:52:05;;;;;;;;;;;;;;;29.58;35.21;100328.38;5073672;28;1115;-29
2023/07/06 09:54:33;;;;;;;;;;;;;;;29.55;34.46;100321.50;5071684;28;1543;-29
2023/07/06 09:57:00;;;;;;;;;;;;;;;29.36;35.35;100320.50;5058750;28;1194;-33
2023/07/06 09:59:26;;;;;;;;;;;;;;;29.62;34.99;100320.69;5073930;28;1020;-35
2023/07/06 10:01:54;;;;;;;;;;;;;;;29.57;33.25;100322.13;5056760;28;1162;-34
2023/07/06 10:04:29;;;;;;;;;;;;;;;29.52;34.06;100321.09;5057465;28;1249;-30
2023/07/06 10:07:10;;;;;;;;;;;;;;;29.20;34.74;100321.72;5058460;28;1914;-31
2023/07/06 10:09:44;;;;;;;;;;;;;;;29.30;34.83;100318.59;5058615;28;1071;-33
2023/07/06 10:12:28;;;;;;;;;;;;;;;29.36;34.53;100319.66;5073157;28;1262;-32
2023/07/06 10:14:54;;;;;;;;;;;;;;;29.65;34.00;100314.84;5057658;28;1102;-30
2023/07/06 10:17:28;;;;;;;;;;;;;;;29.65;34.83;100315.69;5057517;28;853;-32
2023/07/06 10:20:12;;;;;;;;;;;;;;;29.79;34.54;100316.50;5045557;28;1126;-30
2023/07/06 10:22:38;;;;;;;;;;;;;;;29.64;35.13;100308.59;5058238;28;1096;-31
2023/07/06 10:25:18;;;;;;;;;;;;;;;29.63;35.26;100304.22;5058369;28;1909;-33
2023/07/06 10:27:49;;;;;;;;;;;;;;;29.76;34.76;100308.75;5057839;28;1067;-32
2023/07/06 10:30:22;;;;;;;;;;;;;;;29.67;34.53;100304.63;5057871;28;1051;-34
2023/07/06 10:32:50;;;;;;;;;;;;;;;29.68;34.47;100303.56;5072776;28;1287;-34
2023/07/06 10:35:21;;;;;;;;;;;;;;;30.15;34.45;100298.03;5057319;28;1211;-34
2023/07/06 10:37:47;;;;;;;;;;;;;;;29.90;34.04;100293.31;5073006;28;1172;-35
2023/07/06 10:40:16;;;;;;;;;;;;;;;29.66;35.07;100301.06;5073325;28;1160;-36
2023/07/06 10:42:42;;;;;;;;;;;;;;;29.80;34.40;100299.19;5057473;28;1130;-35
2023/07/06 10:45:26;;;;;;;;;;;;;;;29.82;35.09;100291.69;5073190;28;1902;-35
2023/07/06 10:47:52;;;;;;;;;;;;;;;29.91;34.83;100289.53;5045775;28;1086;-40
2023/07/06 10:50:19;;;;;;;;;;;;;;;29.70;35.34;100282.50;5057509;28;1115;-39
2023/07/06 10:52:52;;;;;;;;;;;;;;;29.69;34.54;100280.84;5057345;28;1107;-40
2023/07/06 10:55:18;;;;;;;;;;;;;;;29.59;34.68;100286.72;5055691;28;1191;-39
2023/07/06 10:57:48;;;;;;;;;;;;;;;29.63;34.94;100284.44;5057911;28;1167;-39
2023/07/06 11:00:15;;;;;;;;;;;;;;;29.51;35.69;100276.88;5057307;28;1170;-40
2023/07/06 11:02:40;;;;;;;;;;;;;;;29.34;35.23;100271.91;5057880;28;1139;-40
2023/07/06 11:05:09;;;;;;;;;;;;;;;29.39;34.23;100271.28;5064826;28;1918;-39
2023/07/06 11:07:39;;;;;;;;;;;;;;;29.41;35.16;100265.66;5036929;28;1250;-39
2023/07/06 11:10:09;;;;;;;;;;;;;;;29.42;34.75;100272.75;5038636;28;1344;-39
2023/07/06 11:12:49;;;;;;;;;;;;;;;29.30;37.07;100273.38;5056964;28;1233;-38
2023/07/06 11:15:18;;;;;;;;;;;;;;;29.50;37.14;100263.53;5071952;28;1302;-38
2023/07/06 11:17:48;;;;;;;;;;;;;;;29.34;36.62;100254.84;5072343;28;1246;-40
2023/07/06 11:20:24;;;;;;;;;;;;;;;29.41;35.66;100255.63;5071659;28;1043;-39
2023/07/06 11:22:52;;;;;;;;;;;;;;;29.43;34.83;100253.56;5071660;28;1124;-40
2023/07/06 11:25:19;;;;;;;;;;;;;;;29.36;35.75;100263.59;5071662;28;1913;-40
2023/07/06 11:27:45;;;;;;;;;;;;;;;29.33;35.50;100255.84;5071851;28;1251;-41
2023/07/06 11:30:31;;;;;;;;;;;;;;;29.47;35.20;100245.84;5055701;28;973;-36
2023/07/06 11:33:09;;;;;;;;;;;;;;;29.74;34.02;100251.25;5056832;28;1055;-36
2023/07/06 11:35:35;;;;;;;;;;;;;;;29.84;33.73;100252.66;5057294;28;1040;-38
2023/07/06 11:38:05;;;;;;;;;;;;;;;29.98;33.72;100245.31;5056457;28;1147;-39
2023/07/06 11:40:49;;;;;;;;;;;;;;;29.94;33.51;100240.31;5056375;28;1163;-39
2023/07/06 11:43:14;;;;;;;;;;;;;;;29.93;34.39;100238.66;5044144;28;1167;-40
2023/07/06 11:45:52;;;;;;;;;;;;;;;29.86;33.55;100235.16;5056439;28;1902;-37
2023/07/06 11:48:18;;;;;;;;;;;;;;;29.90;33.41;100240.94;5056152;28;1054;-39
2023/07/06 11:50:43;;;;;;;;;;;;;;;29.90;33.44;100232.81;5056739;28;1039;-39
2023/07/06 11:53:29;;;;;;;;;;;;;;;29.86;33.28;100223.47;5071721;28;1257;-38
2023/07/06 11:56:05;;;;;;;;;;;;;;;29.88;33.04;100232.22;5056509;28;1076;-38
2023/07/06 11:58:42;;;;;;;;;;;;;;;29.97;32.90;100224.66;5070368;28;1043;-34
2023/07/06 12:01:20;;;;;;;;;;;;;;;29.98;32.80;100221.72;5056556;28;1048;-39
2023/07/06 12:03:49;;;;;;;;;;;;;;;29.93;32.77;100216.09;5070454;28;1219;-38
2023/07/06 12:06:17;;;;;;;;;;;;;;;29.93;32.97;100210.69;5063735;28;1906;-38
2023/07/06 12:08:44;;;;;;;;;;;;;;;29.85;32.57;100221.78;5041052;28;1281;-37
2023/07/06 12:11:15;;;;;;;;;;;;;;;29.88;32.14;100216.75;5056157;28;1325;-39
2023/07/06 12:13:45;;;;;;;;;;;;;;;29.88;31.96;100213.25;5055952;28;1290;-39
2023/07/06 12:16:13;;;;;;;;;;;;;;;29.71;32.45;100213.72;5071681;28;1437;-39
2023/07/06 12:18:42;;;;;;;;;;;;;;;29.77;32.28;100212.84;5055642;28;1258;-39
2023/07/06 12:21:26;;;;;;;;;;;;;;;29.75;32.74;100204.09;5072012;28;1143;-40
2023/07/06 12:23:52;;;;;;;;;;;;;;;29.61;32.81;100202.50;5056370;28;1067;-40
2023/07/06 12:26:17;;;;;;;;;;;;;;;29.55;32.84;100190.56;5056222;28;1918;-40
2023/07/06 12:28:43;;;;;;;;;;;;;;;29.54;32.78;100200.59;5055453;28;1206;-38
2023/07/06 12:31:09;;;;;;;;;;;;;;;29.57;32.41;100202.88;5055910;28;1159;-36
2023/07/06 12:33:35;;;;;;;;;;;;;;;29.68;32.16;100201.41;5056397;28;1091;-38
2023/07/06 12:36:01;;;;;;;;;;;;;;;29.57;32.24;100199.34;5056103;28;1093;-39
2023/07/06 12:38:26;;;;;;;;;;;;;;;29.57;32.49;100192.03;5071644;28;1292;-37
2023/07/06 12:40:55;;;;;;;;;;;;;;;29.56;32.43;100192.25;5075496;28;1070;-38
2023/07/06 12:43:25;;;;;;;;;;;;;;;29.42;32.14;100195.00;5059727;28;1140;-37
2023/07/06 12:45:52;;;;;;;;;;;;;;;29.61;32.08;100192.50;5075702;28;1910;-38
2023/07/06 12:48:23;;;;;;;;;;;;;;;29.59;31.89;100194.56;5075414;28;1063;-39
2023/07/06 12:50:50;;;;;;;;;;;;;;;29.51;32.08;100198.28;5059739;28;999;-38
2023/07/06 12:53:22;;;;;;;;;;;;;;;29.55;32.09;100201.41;5059898;28;1113;-38